sensor_id;sensor_type;location;lat;lon;timestamp;P1;durP1;ratioP1;P2;durP2;ratioP2
982;SDS011;480;48.124;11.578;2022-10-14T00:02:18;4.40;;;4.00;;
982;SDS011;480;48.124;11.578;2022-10-14T00:04:46;5.33;;;3.73;;
982;SDS011;480;48.124;11.578;2022-10-14T00:07:15;5.17;;;4.77;;
982;SDS011;480;48.124;11.578;2022-10-14T00:09:42;4.90;;;4.50;;
982;SDS011;480;48.124;11.578;2022-10-14T00:12:10;5.50;;;4.00;;
982;SDS011;480;48.124;11.578;2022-10-14T00:14:37;5.90;;;4.47;;
982;SDS011;480;48.124;11.578;2022-10-14T00:17:04;5.47;;;4.00;;
982;SDS011;480;48.124;11.578;2022-10-14T00:19:31;4.30;;;3.90;;
982;SDS011;480;48.124;11.578;2022-10-14T00:21:58;4.40;;;3.40;;
982;SDS011;480;48.124;11.578;2022-10-14T00:24:27;4.17;;;3.47;;
982;SDS011;480;48.124;11.578;2022-10-14T00:26:54;3.20;;;2.90;;
982;SDS011;480;48.124;11.578;2022-10-14T00:29:21;5.70;;;2.90;;
982;SDS011;480;48.124;11.578;2022-10-14T00:31:48;4.30;;;3.07;;
982;SDS011;480;48.124;11.578;2022-10-14T00:34:17;3.13;;;2.87;;
982;SDS011;480;48.124;11.578;2022-10-14T00:36:45;2.97;;;2.77;;
982;SDS011;480;48.124;11.578;2022-10-14T00:39:12;2.87;;;2.60;;
982;SDS011;480;48.124;11.578;2022-10-14T00:41:40;4.73;;;3.87;;
982;SDS011;480;48.124;11.578;2022-10-14T00:47:08;3.30;;;3.10;;
982;SDS011;480;48.124;11.578;2022-10-14T00:49:36;4.87;;;3.63;;
982;SDS011;480;48.124;11.578;2022-10-14T00:52:07;3.93;;;3.30;;
982;SDS011;480;48.124;11.578;2022-10-14T00:54:39;4.30;;;2.60;;
982;SDS011;480;48.124;11.578;2022-10-14T00:57:09;2.63;;;2.43;;
982;SDS011;480;48.124;11.578;2022-10-14T00:59:37;3.00;;;2.77;;
982;SDS011;480;48.124;11.578;2022-10-14T01:02:06;5.53;;;3.27;;
982;SDS011;480;48.124;11.578;2022-10-14T01:04:34;5.47;;;2.73;;
982;SDS011;480;48.124;11.578;2022-10-14T01:07:05;5.60;;;4.10;;
982;SDS011;480;48.124;11.578;2022-10-14T01:09:39;3.53;;;3.23;;
982;SDS011;480;48.124;11.578;2022-10-14T01:12:16;3.43;;;2.90;;
982;SDS011;480;48.124;11.578;2022-10-14T01:14:53;3.33;;;2.73;;
982;SDS011;480;48.124;11.578;2022-10-14T01:17:31;4.67;;;3.80;;
982;SDS011;480;48.124;11.578;2022-10-14T01:20:13;7.07;;;3.27;;
982;SDS011;480;48.124;11.578;2022-10-14T01:22:55;5.03;;;3.37;;
982;SDS011;480;48.124;11.578;2022-10-14T01:25:32;3.57;;;3.23;;
982;SDS011;480;48.124;11.578;2022-10-14T01:28:11;3.97;;;2.47;;
982;SDS011;480;48.124;11.578;2022-10-14T01:30:47;3.40;;;2.77;;
982;SDS011;480;48.124;11.578;2022-10-14T01:33:15;4.77;;;3.57;;
982;SDS011;480;48.124;11.578;2022-10-14T01:35:49;3.33;;;2.17;;
982;SDS011;480;48.124;11.578;2022-10-14T01:38:22;2.33;;;2.13;;
982;SDS011;480;48.124;11.578;2022-10-14T01:40:53;4.00;;;2.40;;
982;SDS011;480;48.124;11.578;2022-10-14T01:43:24;3.17;;;2.23;;
982;SDS011;480;48.124;11.578;2022-10-14T01:45:54;2.10;;;1.90;;
982;SDS011;480;48.124;11.578;2022-10-14T01:48:25;1.73;;;1.60;;
982;SDS011;480;48.124;11.578;2022-10-14T01:50:57;2.07;;;1.87;;
982;SDS011;480;48.124;11.578;2022-10-14T01:53:28;1.60;;;1.47;;
982;SDS011;480;48.124;11.578;2022-10-14T01:55:59;1.70;;;1.40;;
982;SDS011;480;48.124;11.578;2022-10-14T01:58:29;2.53;;;1.27;;
982;SDS011;480;48.124;11.578;2022-10-14T02:00:59;1.80;;;1.70;;
982;SDS011;480;48.124;11.578;2022-10-14T02:03:36;1.40;;;1.30;;
982;SDS011;480;48.124;11.578;2022-10-14T02:06:05;2.30;;;1.70;;
982;SDS011;480;48.124;11.578;2022-10-14T02:08:39;1.47;;;1.37;;
982;SDS011;480;48.124;11.578;2022-10-14T02:11:17;2.27;;;1.93;;
982;SDS011;480;48.124;11.578;2022-10-14T02:13:53;2.60;;;2.00;;
982;SDS011;480;48.124;11.578;2022-10-14T02:16:32;4.73;;;1.97;;
982;SDS011;480;48.124;11.578;2022-10-14T02:19:07;3.30;;;1.63;;
982;SDS011;480;48.124;11.578;2022-10-14T02:21:38;2.20;;;1.47;;
982;SDS011;480;48.124;11.578;2022-10-14T02:24:10;3.87;;;1.70;;
982;SDS011;480;48.124;11.578;2022-10-14T02:26:43;2.20;;;2.00;;
982;SDS011;480;48.124;11.578;2022-10-14T02:29:11;3.17;;;2.03;;
982;SDS011;480;48.124;11.578;2022-10-14T02:31:40;2.17;;;1.47;;
982;SDS011;480;48.124;11.578;2022-10-14T02:34:12;2.07;;;1.90;;
982;SDS011;480;48.124;11.578;2022-10-14T02:36:43;4.50;;;1.90;;
982;SDS011;480;48.124;11.578;2022-10-14T02:39:14;1.90;;;1.70;;
982;SDS011;480;48.124;11.578;2022-10-14T02:41:44;2.40;;;1.90;;
982;SDS011;480;48.124;11.578;2022-10-14T02:44:11;2.73;;;2.50;;
982;SDS011;480;48.124;11.578;2022-10-14T02:46:39;1.83;;;1.50;;
982;SDS011;480;48.124;11.578;2022-10-14T02:49:08;1.70;;;1.60;;
982;SDS011;480;48.124;11.578;2022-10-14T02:51:35;2.77;;;2.00;;
982;SDS011;480;48.124;11.578;2022-10-14T02:54:02;3.63;;;2.00;;
982;SDS011;480;48.124;11.578;2022-10-14T02:56:29;1.50;;;1.40;;
982;SDS011;480;48.124;11.578;2022-10-14T02:58:56;2.60;;;1.57;;
982;SDS011;480;48.124;11.578;2022-10-14T03:01:23;1.97;;;1.87;;
982;SDS011;480;48.124;11.578;2022-10-14T03:03:52;2.63;;;1.37;;
982;SDS011;480;48.124;11.578;2022-10-14T03:06:19;1.90;;;1.80;;
982;SDS011;480;48.124;11.578;2022-10-14T03:08:49;2.43;;;2.20;;
982;SDS011;480;48.124;11.578;2022-10-14T03:11:16;5.80;;;2.13;;
982;SDS011;480;48.124;11.578;2022-10-14T03:13:43;1.50;;;1.40;;
982;SDS011;480;48.124;11.578;2022-10-14T03:16:10;1.77;;;1.67;;
982;SDS011;480;48.124;11.578;2022-10-14T03:18:37;3.63;;;2.33;;
982;SDS011;480;48.124;11.578;2022-10-14T03:21:05;1.97;;;1.87;;
982;SDS011;480;48.124;11.578;2022-10-14T03:23:32;1.50;;;1.40;;
982;SDS011;480;48.124;11.578;2022-10-14T03:25:59;2.43;;;2.23;;
982;SDS011;480;48.124;11.578;2022-10-14T03:28:26;2.33;;;1.77;;
982;SDS011;480;48.124;11.578;2022-10-14T03:30:53;8.87;;;2.50;;
982;SDS011;480;48.124;11.578;2022-10-14T03:33:20;2.80;;;2.13;;
982;SDS011;480;48.124;11.578;2022-10-14T03:35:47;1.87;;;1.40;;
982;SDS011;480;48.124;11.578;2022-10-14T03:38:15;3.03;;;2.70;;
982;SDS011;480;48.124;11.578;2022-10-14T03:40:43;2.60;;;2.40;;
982;SDS011;480;48.124;11.578;2022-10-14T03:43:10;3.37;;;2.17;;
982;SDS011;480;48.124;11.578;2022-10-14T03:45:37;2.00;;;1.90;;
982;SDS011;480;48.124;11.578;2022-10-14T03:48:04;1.80;;;1.70;;
982;SDS011;480;48.124;11.578;2022-10-14T03:50:31;4.23;;;2.60;;
982;SDS011;480;48.124;11.578;2022-10-14T03:52:58;3.40;;;2.50;;
982;SDS011;480;48.124;11.578;2022-10-14T03:55:26;2.40;;;2.20;;
982;SDS011;480;48.124;11.578;2022-10-14T03:57:53;5.83;;;2.90;;
982;SDS011;480;48.124;11.578;2022-10-14T04:00:21;3.87;;;2.63;;
982;SDS011;480;48.124;11.578;2022-10-14T04:02:48;3.07;;;2.40;;
982;SDS011;480;48.124;11.578;2022-10-14T04:05:14;2.50;;;2.30;;
982;SDS011;480;48.124;11.578;2022-10-14T04:07:42;2.80;;;2.37;;
982;SDS011;480;48.124;11.578;2022-10-14T04:10:08;2.40;;;2.20;;
982;SDS011;480;48.124;11.578;2022-10-14T04:12:37;2.50;;;2.30;;
982;SDS011;480;48.124;11.578;2022-10-14T04:15:05;2.40;;;2.00;;
982;SDS011;480;48.124;11.578;2022-10-14T04:17:32;3.33;;;2.10;;
982;SDS011;480;48.124;11.578;2022-10-14T04:19:59;3.37;;;2.23;;
982;SDS011;480;48.124;11.578;2022-10-14T04:22:27;2.00;;;1.90;;
982;SDS011;480;48.124;11.578;2022-10-14T04:24:54;2.17;;;1.97;;
982;SDS011;480;48.124;11.578;2022-10-14T04:27:21;2.93;;;2.53;;
982;SDS011;480;48.124;11.578;2022-10-14T04:29:50;2.93;;;2.73;;
982;SDS011;480;48.124;11.578;2022-10-14T04:32:20;4.90;;;2.67;;
982;SDS011;480;48.124;11.578;2022-10-14T04:34:47;2.60;;;2.10;;
982;SDS011;480;48.124;11.578;2022-10-14T04:37:14;5.03;;;2.30;;
982;SDS011;480;48.124;11.578;2022-10-14T04:39:41;11.03;;;2.10;;
982;SDS011;480;48.124;11.578;2022-10-14T04:42:08;2.40;;;2.23;;
982;SDS011;480;48.124;11.578;2022-10-14T04:44:35;1.90;;;1.80;;
982;SDS011;480;48.124;11.578;2022-10-14T04:47:03;1.90;;;1.80;;
982;SDS011;480;48.124;11.578;2022-10-14T04:49:32;2.50;;;2.00;;
982;SDS011;480;48.124;11.578;2022-10-14T04:51:59;2.90;;;2.23;;
982;SDS011;480;48.124;11.578;2022-10-14T04:54:26;2.63;;;2.43;;
982;SDS011;480;48.124;11.578;2022-10-14T04:56:53;3.20;;;2.90;;
982;SDS011;480;48.124;11.578;2022-10-14T04:59:20;1.80;;;1.60;;
982;SDS011;480;48.124;11.578;2022-10-14T05:01:47;2.10;;;1.90;;
982;SDS011;480;48.124;11.578;2022-10-14T05:04:16;3.93;;;1.63;;
982;SDS011;480;48.124;11.578;2022-10-14T05:06:43;4.13;;;2.40;;
982;SDS011;480;48.124;11.578;2022-10-14T05:09:10;1.77;;;1.63;;
982;SDS011;480;48.124;11.578;2022-10-14T05:11:37;2.20;;;2.00;;
982;SDS011;480;48.124;11.578;2022-10-14T05:14:04;2.30;;;2.10;;
982;SDS011;480;48.124;11.578;2022-10-14T05:16:31;2.60;;;2.40;;
982;SDS011;480;48.124;11.578;2022-10-14T05:18:59;2.20;;;1.90;;
982;SDS011;480;48.124;11.578;2022-10-14T05:21:27;3.30;;;2.60;;
982;SDS011;480;48.124;11.578;2022-10-14T05:23:54;2.27;;;2.07;;
982;SDS011;480;48.124;11.578;2022-10-14T05:26:21;8.30;;;3.53;;
982;SDS011;480;48.124;11.578;2022-10-14T05:28:50;2.60;;;2.40;;
982;SDS011;480;48.124;11.578;2022-10-14T05:31:17;2.93;;;2.73;;
982;SDS011;480;48.124;11.578;2022-10-14T05:33:44;2.67;;;2.10;;
982;SDS011;480;48.124;11.578;2022-10-14T05:36:11;4.50;;;2.30;;
982;SDS011;480;48.124;11.578;2022-10-14T05:38:39;6.30;;;2.10;;
982;SDS011;480;48.124;11.578;2022-10-14T05:41:06;2.40;;;2.00;;
982;SDS011;480;48.124;11.578;2022-10-14T05:43:34;2.77;;;2.20;;
982;SDS011;480;48.124;11.578;2022-10-14T05:46:01;2.30;;;2.10;;
982;SDS011;480;48.124;11.578;2022-10-14T05:48:28;3.50;;;2.50;;
982;SDS011;480;48.124;11.578;2022-10-14T05:50:56;3.67;;;2.33;;
982;SDS011;480;48.124;11.578;2022-10-14T05:53:26;2.50;;;2.30;;
982;SDS011;480;48.124;11.578;2022-10-14T05:56:00;4.57;;;3.43;;
982;SDS011;480;48.124;11.578;2022-10-14T05:58:28;4.23;;;3.17;;
982;SDS011;480;48.124;11.578;2022-10-14T06:00:57;3.17;;;2.80;;
982;SDS011;480;48.124;11.578;2022-10-14T06:03:25;4.70;;;3.07;;
982;SDS011;480;48.124;11.578;2022-10-14T06:05:52;4.93;;;2.30;;
982;SDS011;480;48.124;11.578;2022-10-14T06:08:20;3.17;;;2.87;;
982;SDS011;480;48.124;11.578;2022-10-14T06:10:47;3.10;;;2.40;;
982;SDS011;480;48.124;11.578;2022-10-14T06:13:15;5.13;;;2.90;;
982;SDS011;480;48.124;11.578;2022-10-14T06:15:42;2.90;;;2.70;;
982;SDS011;480;48.124;11.578;2022-10-14T06:18:09;2.90;;;2.70;;
982;SDS011;480;48.124;11.578;2022-10-14T06:20:36;2.93;;;2.33;;
982;SDS011;480;48.124;11.578;2022-10-14T06:23:04;2.83;;;2.50;;
982;SDS011;480;48.124;11.578;2022-10-14T06:25:31;2.53;;;2.30;;
982;SDS011;480;48.124;11.578;2022-10-14T06:28:00;6.63;;;3.13;;
982;SDS011;480;48.124;11.578;2022-10-14T06:30:30;2.90;;;2.37;;
982;SDS011;480;48.124;11.578;2022-10-14T06:32:57;3.40;;;3.10;;
982;SDS011;480;48.124;11.578;2022-10-14T06:35:24;4.87;;;3.07;;
982;SDS011;480;48.124;11.578;2022-10-14T06:37:53;2.80;;;2.53;;
982;SDS011;480;48.124;11.578;2022-10-14T06:40:20;4.30;;;3.10;;
982;SDS011;480;48.124;11.578;2022-10-14T06:42:47;2.67;;;2.47;;
982;SDS011;480;48.124;11.578;2022-10-14T06:45:14;3.97;;;2.47;;
982;SDS011;480;48.124;11.578;2022-10-14T06:47:42;2.27;;;2.10;;
982;SDS011;480;48.124;11.578;2022-10-14T06:50:10;3.50;;;2.90;;
982;SDS011;480;48.124;11.578;2022-10-14T06:52:36;3.40;;;3.10;;
982;SDS011;480;48.124;11.578;2022-10-14T06:55:04;2.13;;;1.93;;
982;SDS011;480;48.124;11.578;2022-10-14T06:57:32;1.93;;;1.77;;
982;SDS011;480;48.124;11.578;2022-10-14T06:59:59;2.13;;;1.93;;
982;SDS011;480;48.124;11.578;2022-10-14T07:02:26;2.73;;;2.43;;
982;SDS011;480;48.124;11.578;2022-10-14T07:04:54;2.33;;;2.13;;
982;SDS011;480;48.124;11.578;2022-10-14T07:07:21;3.73;;;2.87;;
982;SDS011;480;48.124;11.578;2022-10-14T07:09:48;3.43;;;2.73;;
982;SDS011;480;48.124;11.578;2022-10-14T07:12:15;2.87;;;2.57;;
982;SDS011;480;48.124;11.578;2022-10-14T07:14:42;2.20;;;1.97;;
982;SDS011;480;48.124;11.578;2022-10-14T07:17:09;2.50;;;2.30;;
982;SDS011;480;48.124;11.578;2022-10-14T07:19:36;2.70;;;2.07;;
982;SDS011;480;48.124;11.578;2022-10-14T07:22:04;2.90;;;2.50;;
982;SDS011;480;48.124;11.578;2022-10-14T07:24:31;2.40;;;2.13;;
982;SDS011;480;48.124;11.578;2022-10-14T07:26:58;1.93;;;1.63;;
982;SDS011;480;48.124;11.578;2022-10-14T07:29:26;1.80;;;1.70;;
982;SDS011;480;48.124;11.578;2022-10-14T07:31:53;2.00;;;1.47;;
982;SDS011;480;48.124;11.578;2022-10-14T07:34:20;2.50;;;2.30;;
982;SDS011;480;48.124;11.578;2022-10-14T07:36:47;2.87;;;2.07;;
982;SDS011;480;48.124;11.578;2022-10-14T07:39:16;1.73;;;1.63;;
982;SDS011;480;48.124;11.578;2022-10-14T07:41:43;2.80;;;2.30;;
982;SDS011;480;48.124;11.578;2022-10-14T07:44:10;2.57;;;1.83;;
982;SDS011;480;48.124;11.578;2022-10-14T07:46:39;2.10;;;1.73;;
982;SDS011;480;48.124;11.578;2022-10-14T07:49:11;2.30;;;1.90;;
982;SDS011;480;48.124;11.578;2022-10-14T07:51:39;3.67;;;1.80;;
982;SDS011;480;48.124;11.578;2022-10-14T07:54:08;5.93;;;1.97;;
982;SDS011;480;48.124;11.578;2022-10-14T07:56:40;2.80;;;2.13;;
982;SDS011;480;48.124;11.578;2022-10-14T07:59:08;1.73;;;1.53;;
982;SDS011;480;48.124;11.578;2022-10-14T08:01:36;1.83;;;1.70;;
982;SDS011;480;48.124;11.578;2022-10-14T08:04:03;2.40;;;2.20;;
982;SDS011;480;48.124;11.578;2022-10-14T08:06:31;2.00;;;1.90;;
982;SDS011;480;48.124;11.578;2022-10-14T08:08:58;2.67;;;1.80;;
982;SDS011;480;48.124;11.578;2022-10-14T08:11:26;1.80;;;1.30;;
982;SDS011;480;48.124;11.578;2022-10-14T08:13:56;2.10;;;1.70;;
982;SDS011;480;48.124;11.578;2022-10-14T08:16:25;1.43;;;1.20;;
982;SDS011;480;48.124;11.578;2022-10-14T08:18:54;1.63;;;1.53;;
982;SDS011;480;48.124;11.578;2022-10-14T08:21:22;2.20;;;2.00;;
982;SDS011;480;48.124;11.578;2022-10-14T08:23:49;2.50;;;2.10;;
982;SDS011;480;48.124;11.578;2022-10-14T08:26:18;1.43;;;1.30;;
982;SDS011;480;48.124;11.578;2022-10-14T08:28:48;2.10;;;1.63;;
982;SDS011;480;48.124;11.578;2022-10-14T08:31:17;2.47;;;1.20;;
982;SDS011;480;48.124;11.578;2022-10-14T08:33:45;1.60;;;1.50;;
982;SDS011;480;48.124;11.578;2022-10-14T08:36:12;1.60;;;1.47;;
982;SDS011;480;48.124;11.578;2022-10-14T08:38:39;1.20;;;1.10;;
982;SDS011;480;48.124;11.578;2022-10-14T08:41:22;1.30;;;1.20;;
982;SDS011;480;48.124;11.578;2022-10-14T08:43:53;1.90;;;1.50;;
982;SDS011;480;48.124;11.578;2022-10-14T08:46:34;2.57;;;1.37;;
982;SDS011;480;48.124;11.578;2022-10-14T08:49:07;1.03;;;0.90;;
982;SDS011;480;48.124;11.578;2022-10-14T08:51:41;2.60;;;2.40;;
982;SDS011;480;48.124;11.578;2022-10-14T08:54:14;2.43;;;2.00;;
982;SDS011;480;48.124;11.578;2022-10-14T08:56:45;3.10;;;1.30;;
982;SDS011;480;48.124;11.578;2022-10-14T08:59:13;3.47;;;1.23;;
982;SDS011;480;48.124;11.578;2022-10-14T09:01:47;0.90;;;0.90;;
982;SDS011;480;48.124;11.578;2022-10-14T09:04:17;1.03;;;0.93;;
982;SDS011;480;48.124;11.578;2022-10-14T09:06:45;1.23;;;1.13;;
982;SDS011;480;48.124;11.578;2022-10-14T09:09:16;1.40;;;1.30;;
982;SDS011;480;48.124;11.578;2022-10-14T09:11:48;3.50;;;0.97;;
982;SDS011;480;48.124;11.578;2022-10-14T09:14:20;1.07;;;1.00;;
982;SDS011;480;48.124;11.578;2022-10-14T09:16:52;3.20;;;0.93;;
982;SDS011;480;48.124;11.578;2022-10-14T09:19:25;0.83;;;0.83;;
982;SDS011;480;48.124;11.578;2022-10-14T09:21:56;1.83;;;1.20;;
982;SDS011;480;48.124;11.578;2022-10-14T09:24:26;1.93;;;0.77;;
982;SDS011;480;48.124;11.578;2022-10-14T09:26:56;1.07;;;0.97;;
982;SDS011;480;48.124;11.578;2022-10-14T09:29:26;1.00;;;0.80;;
982;SDS011;480;48.124;11.578;2022-10-14T09:31:56;4.40;;;1.67;;
982;SDS011;480;48.124;11.578;2022-10-14T09:34:28;0.97;;;0.87;;
982;SDS011;480;48.124;11.578;2022-10-14T09:36:58;1.67;;;0.80;;
982;SDS011;480;48.124;11.578;2022-10-14T09:39:38;1.00;;;1.00;;
982;SDS011;480;48.124;11.578;2022-10-14T09:42:07;1.43;;;1.20;;
982;SDS011;480;48.124;11.578;2022-10-14T09:44:42;0.97;;;0.90;;
982;SDS011;480;48.124;11.578;2022-10-14T09:47:11;1.67;;;0.90;;
982;SDS011;480;48.124;11.578;2022-10-14T09:49:43;1.13;;;0.93;;
982;SDS011;480;48.124;11.578;2022-10-14T09:52:19;1.73;;;1.00;;
982;SDS011;480;48.124;11.578;2022-10-14T09:54:51;1.67;;;0.90;;
982;SDS011;480;48.124;11.578;2022-10-14T09:57:20;1.53;;;0.93;;
982;SDS011;480;48.124;11.578;2022-10-14T09:59:49;0.83;;;0.80;;
982;SDS011;480;48.124;11.578;2022-10-14T10:02:21;1.20;;;1.10;;
982;SDS011;480;48.124;11.578;2022-10-14T10:04:52;1.27;;;0.80;;
982;SDS011;480;48.124;11.578;2022-10-14T10:07:22;1.57;;;0.70;;
982;SDS011;480;48.124;11.578;2022-10-14T10:09:54;1.20;;;1.10;;
982;SDS011;480;48.124;11.578;2022-10-14T10:12:22;1.37;;;0.80;;
982;SDS011;480;48.124;11.578;2022-10-14T10:14:54;0.80;;;0.80;;
982;SDS011;480;48.124;11.578;2022-10-14T10:17:24;7.33;;;4.57;;
982;SDS011;480;48.124;11.578;2022-10-14T10:20:05;0.70;;;0.60;;
982;SDS011;480;48.124;11.578;2022-10-14T10:22:41;1.00;;;0.90;;
982;SDS011;480;48.124;11.578;2022-10-14T10:25:18;1.53;;;0.90;;
982;SDS011;480;48.124;11.578;2022-10-14T10:27:54;1.43;;;0.97;;
982;SDS011;480;48.124;11.578;2022-10-14T10:30:25;1.00;;;0.67;;
982;SDS011;480;48.124;11.578;2022-10-14T10:33:15;0.97;;;0.70;;
982;SDS011;480;48.124;11.578;2022-10-14T10:35:55;0.90;;;0.70;;
982;SDS011;480;48.124;11.578;2022-10-14T10:38:33;1.00;;;0.73;;
982;SDS011;480;48.124;11.578;2022-10-14T10:41:11;0.87;;;0.80;;
982;SDS011;480;48.124;11.578;2022-10-14T10:44:07;2.10;;;0.67;;
982;SDS011;480;48.124;11.578;2022-10-14T10:47:02;0.80;;;0.80;;
982;SDS011;480;48.124;11.578;2022-10-14T10:52:44;1.80;;;1.00;;
982;SDS011;480;48.124;11.578;2022-10-14T10:55:31;0.97;;;0.97;;
982;SDS011;480;48.124;11.578;2022-10-14T10:58:16;1.30;;;1.20;;
982;SDS011;480;48.124;11.578;2022-10-14T11:01:00;1.43;;;1.10;;
982;SDS011;480;48.124;11.578;2022-10-14T11:03:51;1.23;;;1.13;;
982;SDS011;480;48.124;11.578;2022-10-14T11:06:32;1.93;;;1.27;;
982;SDS011;480;48.124;11.578;2022-10-14T11:09:28;2.00;;;1.20;;
982;SDS011;480;48.124;11.578;2022-10-14T11:12:29;0.87;;;0.83;;
982;SDS011;480;48.124;11.578;2022-10-14T11:17:55;1.20;;;1.10;;
982;SDS011;480;48.124;11.578;2022-10-14T11:26:14;2.10;;;1.20;;
982;SDS011;480;48.124;11.578;2022-10-14T11:28:52;0.70;;;0.70;;
982;SDS011;480;48.124;11.578;2022-10-14T11:31:27;2.10;;;1.07;;
982;SDS011;480;48.124;11.578;2022-10-14T11:34:15;0.63;;;0.60;;
982;SDS011;480;48.124;11.578;2022-10-14T11:36:59;0.90;;;0.80;;
982;SDS011;480;48.124;11.578;2022-10-14T11:39:36;0.80;;;0.80;;
982;SDS011;480;48.124;11.578;2022-10-14T11:42:11;2.13;;;0.77;;
982;SDS011;480;48.124;11.578;2022-10-14T11:44:49;1.20;;;1.10;;
982;SDS011;480;48.124;11.578;2022-10-14T11:47:29;4.17;;;1.30;;
982;SDS011;480;48.124;11.578;2022-10-14T11:50:01;1.57;;;0.80;;
982;SDS011;480;48.124;11.578;2022-10-14T11:52:34;1.60;;;0.70;;
982;SDS011;480;48.124;11.578;2022-10-14T11:55:10;2.63;;;0.90;;
982;SDS011;480;48.124;11.578;2022-10-14T11:57:42;1.27;;;1.10;;
982;SDS011;480;48.124;11.578;2022-10-14T12:00:12;1.43;;;1.10;;
982;SDS011;480;48.124;11.578;2022-10-14T12:02:51;2.67;;;1.17;;
982;SDS011;480;48.124;11.578;2022-10-14T12:05:25;1.23;;;0.90;;
982;SDS011;480;48.124;11.578;2022-10-14T12:08:06;2.63;;;1.00;;
982;SDS011;480;48.124;11.578;2022-10-14T12:10:53;1.33;;;1.00;;
982;SDS011;480;48.124;11.578;2022-10-14T12:13:27;1.10;;;1.00;;
982;SDS011;480;48.124;11.578;2022-10-14T12:15:59;2.30;;;1.17;;
982;SDS011;480;48.124;11.578;2022-10-14T12:18:37;1.90;;;0.90;;
982;SDS011;480;48.124;11.578;2022-10-14T12:21:15;2.27;;;1.33;;
982;SDS011;480;48.124;11.578;2022-10-14T12:23:47;1.20;;;0.60;;
982;SDS011;480;48.124;11.578;2022-10-14T12:26:26;1.07;;;0.97;;
982;SDS011;480;48.124;11.578;2022-10-14T12:29:07;1.10;;;1.00;;
982;SDS011;480;48.124;11.578;2022-10-14T12:31:38;2.47;;;1.20;;
982;SDS011;480;48.124;11.578;2022-10-14T12:40:26;1.57;;;1.03;;
982;SDS011;480;48.124;11.578;2022-10-14T12:43:12;1.07;;;0.70;;
982;SDS011;480;48.124;11.578;2022-10-14T12:45:58;0.87;;;0.87;;
982;SDS011;480;48.124;11.578;2022-10-14T12:48:29;1.63;;;1.20;;
982;SDS011;480;48.124;11.578;2022-10-14T12:51:04;1.10;;;1.00;;
982;SDS011;480;48.124;11.578;2022-10-14T12:53:34;0.80;;;0.80;;
982;SDS011;480;48.124;11.578;2022-10-14T12:56:04;1.57;;;1.43;;
982;SDS011;480;48.124;11.578;2022-10-14T12:58:35;1.00;;;0.80;;
982;SDS011;480;48.124;11.578;2022-10-14T13:01:06;1.20;;;0.73;;
982;SDS011;480;48.124;11.578;2022-10-14T13:03:42;2.70;;;1.23;;
982;SDS011;480;48.124;11.578;2022-10-14T13:06:29;1.27;;;1.00;;
982;SDS011;480;48.124;11.578;2022-10-14T13:24:20;2.40;;;1.17;;
982;SDS011;480;48.124;11.578;2022-10-14T13:27:00;2.30;;;1.37;;
982;SDS011;480;48.124;11.578;2022-10-14T13:29:39;1.50;;;1.13;;
982;SDS011;480;48.124;11.578;2022-10-14T13:32:32;1.53;;;0.90;;
982;SDS011;480;48.124;11.578;2022-10-14T13:35:08;1.30;;;1.20;;
982;SDS011;480;48.124;11.578;2022-10-14T13:37:44;1.63;;;1.20;;
982;SDS011;480;48.124;11.578;2022-10-14T13:40:19;1.10;;;1.00;;
982;SDS011;480;48.124;11.578;2022-10-14T13:42:52;1.93;;;1.83;;
982;SDS011;480;48.124;11.578;2022-10-14T13:45:22;2.00;;;1.30;;
982;SDS011;480;48.124;11.578;2022-10-14T13:47:58;2.60;;;1.37;;
982;SDS011;480;48.124;11.578;2022-10-14T13:50:30;1.97;;;1.40;;
982;SDS011;480;48.124;11.578;2022-10-14T13:53:03;1.47;;;1.37;;
982;SDS011;480;48.124;11.578;2022-10-14T13:55:41;2.03;;;1.33;;
982;SDS011;480;48.124;11.578;2022-10-14T13:58:10;1.40;;;0.97;;
982;SDS011;480;48.124;11.578;2022-10-14T14:00:49;1.63;;;1.47;;
982;SDS011;480;48.124;11.578;2022-10-14T14:03:25;1.97;;;1.27;;
982;SDS011;480;48.124;11.578;2022-10-14T14:05:56;1.60;;;1.17;;
982;SDS011;480;48.124;11.578;2022-10-14T14:08:25;2.03;;;1.03;;
982;SDS011;480;48.124;11.578;2022-10-14T14:10:55;2.07;;;1.60;;
982;SDS011;480;48.124;11.578;2022-10-14T14:13:27;1.47;;;1.37;;
982;SDS011;480;48.124;11.578;2022-10-14T14:15:57;1.20;;;1.10;;
982;SDS011;480;48.124;11.578;2022-10-14T14:18:27;3.43;;;1.73;;
982;SDS011;480;48.124;11.578;2022-10-14T14:20:59;1.33;;;1.23;;
982;SDS011;480;48.124;11.578;2022-10-14T14:23:27;1.60;;;1.20;;
982;SDS011;480;48.124;11.578;2022-10-14T14:25:55;1.90;;;1.80;;
982;SDS011;480;48.124;11.578;2022-10-14T14:28:23;1.40;;;1.30;;
982;SDS011;480;48.124;11.578;2022-10-14T14:30:55;1.50;;;1.40;;
982;SDS011;480;48.124;11.578;2022-10-14T14:33:24;3.17;;;1.47;;
982;SDS011;480;48.124;11.578;2022-10-14T14:36:00;2.20;;;1.40;;
982;SDS011;480;48.124;11.578;2022-10-14T14:38:30;1.70;;;1.30;;
982;SDS011;480;48.124;11.578;2022-10-14T14:41:02;1.70;;;1.33;;
982;SDS011;480;48.124;11.578;2022-10-14T14:43:30;2.73;;;1.33;;
982;SDS011;480;48.124;11.578;2022-10-14T14:45:59;2.17;;;1.73;;
982;SDS011;480;48.124;11.578;2022-10-14T14:48:29;3.47;;;1.93;;
982;SDS011;480;48.124;11.578;2022-10-14T14:50:57;4.40;;;1.80;;
982;SDS011;480;48.124;11.578;2022-10-14T14:53:26;1.63;;;1.50;;
982;SDS011;480;48.124;11.578;2022-10-14T14:55:59;1.77;;;1.67;;
982;SDS011;480;48.124;11.578;2022-10-14T14:58:30;2.60;;;1.67;;
982;SDS011;480;48.124;11.578;2022-10-14T15:00:59;2.33;;;1.53;;
982;SDS011;480;48.124;11.578;2022-10-14T15:03:26;2.07;;;1.90;;
982;SDS011;480;48.124;11.578;2022-10-14T15:06:00;2.20;;;2.00;;
982;SDS011;480;48.124;11.578;2022-10-14T15:08:30;2.97;;;1.50;;
982;SDS011;480;48.124;11.578;2022-10-14T15:11:00;1.20;;;1.10;;
982;SDS011;480;48.124;11.578;2022-10-14T15:13:29;1.90;;;1.50;;
982;SDS011;480;48.124;11.578;2022-10-14T15:16:07;1.27;;;0.93;;
982;SDS011;480;48.124;11.578;2022-10-14T15:18:36;1.53;;;1.20;;
982;SDS011;480;48.124;11.578;2022-10-14T15:21:10;2.50;;;2.03;;
982;SDS011;480;48.124;11.578;2022-10-14T15:23:42;1.40;;;1.30;;
982;SDS011;480;48.124;11.578;2022-10-14T15:26:21;1.90;;;1.37;;
982;SDS011;480;48.124;11.578;2022-10-14T15:29:10;1.70;;;1.60;;
982;SDS011;480;48.124;11.578;2022-10-14T15:31:40;2.40;;;1.63;;
982;SDS011;480;48.124;11.578;2022-10-14T15:34:17;1.73;;;1.63;;
982;SDS011;480;48.124;11.578;2022-10-14T15:36:47;1.37;;;1.27;;
982;SDS011;480;48.124;11.578;2022-10-14T15:39:16;2.60;;;1.67;;
982;SDS011;480;48.124;11.578;2022-10-14T15:41:43;1.67;;;1.57;;
982;SDS011;480;48.124;11.578;2022-10-14T15:44:10;3.30;;;2.20;;
982;SDS011;480;48.124;11.578;2022-10-14T15:46:37;2.17;;;1.73;;
982;SDS011;480;48.124;11.578;2022-10-14T15:49:26;2.33;;;1.80;;
982;SDS011;480;48.124;11.578;2022-10-14T15:51:55;2.33;;;2.23;;
982;SDS011;480;48.124;11.578;2022-10-14T15:54:22;1.90;;;1.80;;
982;SDS011;480;48.124;11.578;2022-10-14T15:56:51;2.03;;;1.47;;
982;SDS011;480;48.124;11.578;2022-10-14T15:59:20;1.93;;;1.60;;
982;SDS011;480;48.124;11.578;2022-10-14T16:01:47;2.10;;;2.00;;
982;SDS011;480;48.124;11.578;2022-10-14T16:04:15;1.97;;;1.87;;
982;SDS011;480;48.124;11.578;2022-10-14T16:06:47;2.23;;;2.00;;
982;SDS011;480;48.124;11.578;2022-10-14T16:09:15;2.30;;;2.10;;
982;SDS011;480;48.124;11.578;2022-10-14T16:11:42;2.00;;;1.90;;
982;SDS011;480;48.124;11.578;2022-10-14T16:14:10;3.60;;;2.30;;
982;SDS011;480;48.124;11.578;2022-10-14T16:16:39;2.97;;;2.43;;
982;SDS011;480;48.124;11.578;2022-10-14T16:19:08;2.50;;;2.27;;
982;SDS011;480;48.124;11.578;2022-10-14T16:21:37;2.17;;;1.97;;
982;SDS011;480;48.124;11.578;2022-10-14T16:24:09;2.40;;;2.17;;
982;SDS011;480;48.124;11.578;2022-10-14T16:26:42;4.20;;;2.03;;
982;SDS011;480;48.124;11.578;2022-10-14T16:29:09;3.50;;;2.03;;
982;SDS011;480;48.124;11.578;2022-10-14T16:31:36;2.83;;;1.93;;